Time;durP1;ratioP1;P1;durP2;ratioP2;P2;SDS_P1;SDS_P2;PMS_P1;PMS_P2;Temp;Humidity;BMP_temperature;BMP_pressure;BME280_temperature;BME280_humidity;BME280_pressure;Samples;Min_cycle;Max_cycle;Signal;HPM_P1;HPM_P2
2023/07/24 00:01:52;;;;;;;10.13;4.00;;;;;;;16.58;100.00;100452.84;5035256;28;20085;-78
2023/07/24 00:04:17;;;;;;;9.60;4.20;;;;;;;16.60;100.00;100460.63;5043448;28;20140;-78
2023/07/24 00:06:43;;;;;;;9.32;5.00;;;;;;;16.61;100.00;100452.66;5037301;28;20057;-77
2023/07/24 00:09:08;;;;;;;9.05;4.78;;;;;;;16.62;100.00;100456.16;5044439;28;20461;-78
2023/07/24 00:11:33;;;;;;;13.65;5.40;;;;;;;16.59;100.00;100449.25;5040546;28;20538;-77
2023/07/24 00:13:58;;;;;;;11.30;5.13;;;;;;;16.61;100.00;100452.66;5043272;28;20449;-77
2023/07/24 00:16:24;;;;;;;14.35;5.60;;;;;;;16.63;100.00;100444.69;5036891;28;20521;-78
2023/07/24 00:18:49;;;;;;;12.88;5.55;;;;;;;16.59;100.00;100448.41;5040786;28;20033;-77
2023/07/24 00:21:14;;;;;;;11.63;5.00;;;;;;;16.58;100.00;100437.03;5033962;28;20041;-77
2023/07/24 00:23:40;;;;;;;13.13;5.15;;;;;;;16.57;100.00;100434.47;5046220;28;20032;-77
2023/07/24 00:26:05;;;;;;;13.18;5.60;;;;;;;16.58;100.00;100431.78;5036844;28;20156;-78
2023/07/24 00:28:30;;;;;;;9.43;5.20;;;;;;;16.63;100.00;100426.25;5043244;28;20037;-78
2023/07/24 00:30:56;;;;;;;12.10;5.93;;;;;;;16.58;100.00;100423.03;5038251;28;20053;-77
2023/07/24 00:33:21;;;;;;;15.93;5.65;;;;;;;16.58;100.00;100423.03;5042474;28;20052;-77
2023/07/24 00:35:47;;;;;;;16.95;5.75;;;;;;;16.56;100.00;100417.84;5042895;28;20111;-78
2023/07/24 00:38:12;;;;;;;9.95;4.93;;;;;;;16.54;100.00;100411.81;5034425;28;20175;-77
2023/07/24 00:40:37;;;;;;;11.40;5.20;;;;;;;16.48;100.00;100406.91;5034706;28;20075;-77
2023/07/24 00:43:03;;;;;;;9.50;4.90;;;;;;;16.52;100.00;100415.47;5043484;28;20096;-77
2023/07/24 00:45:28;;;;;;;13.63;5.93;;;;;;;16.53;100.00;100409.28;5040659;28;20456;-77
2023/07/24 00:47:54;;;;;;;14.77;5.88;;;;;;;16.53;100.00;100401.38;5038594;28;20044;-77
2023/07/24 00:50:19;;;;;;;14.60;5.50;;;;;;;16.54;100.00;100405.69;5040857;28;20365;-78
2023/07/24 00:52:45;;;;;;;16.35;5.97;;;;;;;16.54;100.00;100411.81;5034950;28;20103;-77
2023/07/24 00:55:12;;;;;;;16.90;6.10;;;;;;;16.54;100.00;100406.53;5026672;28;20035;-77
2023/07/24 00:57:38;;;;;;;12.85;6.43;;;;;;;16.57;100.00;100398.47;5041310;28;20026;-77
2023/07/24 01:00:03;;;;;;;16.17;6.50;;;;;;;16.53;100.00;100396.97;5039259;28;20025;-78
2023/07/24 01:02:30;;;;;;;13.18;6.45;;;;;;;16.57;100.00;100398.47;5039092;28;20038;-78
2023/07/24 01:04:55;;;;;;;14.55;6.90;;;;;;;16.56;100.00;100398.59;5033621;28;20443;-78
2023/07/24 01:07:21;;;;;;;17.92;7.00;;;;;;;16.58;100.00;100394.09;5044693;28;20067;-79
2023/07/24 01:09:47;;;;;;;12.35;6.70;;;;;;;16.53;100.00;100388.22;5043461;28;20443;-81
2023/07/24 01:12:33;;;;;;;16.85;7.05;;;;;;;16.56;100.00;100385.44;5046401;28;20026;-80
2023/07/24 01:15:07;;;;;;;25.45;7.53;;;;;;;16.56;100.00;100375.75;5037993;28;20461;-81
2023/07/24 01:17:38;;;;;;;19.77;7.88;;;;;;;16.51;100.00;100372.53;5032952;28;20056;-81
2023/07/24 01:20:04;;;;;;;17.42;7.40;;;;;;;16.51;100.00;100362.00;5037703;28;20481;-81
2023/07/24 01:22:29;;;;;;;20.42;8.25;;;;;;;16.54;100.00;100369.72;5042489;28;20041;-80
2023/07/24 01:25:21;;;;;;;19.60;7.60;;;;;;;16.54;100.00;100371.50;5044948;28;20051;-81
2023/07/24 01:27:47;;;;;;;17.90;7.88;;;;;;;16.55;100.00;100373.22;5033961;28;20032;-80
2023/07/24 01:30:18;;;;;;;28.52;8.63;;;;;;;16.56;100.00;100378.38;5043171;28;20377;-79
2023/07/24 01:32:43;;;;;;;24.48;8.70;;;;;;;16.61;100.00;100375.47;5043690;28;20044;-79
2023/07/24 01:35:09;;;;;;;30.27;9.20;;;;;;;16.61;100.00;100367.59;5045379;28;20033;-79
2023/07/24 01:37:35;;;;;;;21.13;9.25;;;;;;;16.66;100.00;100365.56;5039296;28;20028;-78
2023/07/24 01:40:02;;;;;;;29.35;10.05;;;;;;;16.65;100.00;100371.75;5041248;28;20021;-78
2023/07/24 01:42:28;;;;;;;36.53;10.07;;;;;;;16.66;100.00;100364.72;5043555;28;20036;-79
2023/07/24 01:44:54;;;;;;;28.15;9.57;;;;;;;16.66;100.00;100344.50;5037929;28;20479;-79
2023/07/24 01:47:21;;;;;;;22.30;8.90;;;;;;;16.67;100.00;100350.59;5046700;28;20037;-78
2023/07/24 01:49:46;;;;;;;24.67;9.70;;;;;;;16.65;100.00;100352.50;5034697;28;20052;-81
2023/07/24 01:52:11;;;;;;;33.55;10.30;;;;;;;16.65;100.00;100349.88;5042815;28;20033;-81
2023/07/24 01:54:37;;;;;;;31.25;9.63;;;;;;;16.66;100.00;100333.13;5041843;28;20100;-80
2023/07/24 01:57:02;;;;;;;22.33;8.77;;;;;;;16.61;100.00;100334.25;5047259;28;20064;-79
2023/07/24 01:59:27;;;;;;;25.75;9.35;;;;;;;16.61;100.00;100331.63;5042897;28;20025;-79
2023/07/24 02:01:53;;;;;;;35.03;9.15;;;;;;;16.59;100.00;100322.94;5041947;28;20029;-80
2023/07/24 02:04:21;;;;;;;24.25;8.35;;;;;;;16.60;100.00;100332.53;5040719;28;20025;-80
2023/07/24 02:06:47;;;;;;;22.85;8.27;;;;;;;16.61;100.00;100317.59;5037900;28;20029;-81
2023/07/24 02:09:13;;;;;;;21.17;7.88;;;;;;;16.62;100.00;100321.94;5040241;28;20045;-81
2023/07/24 02:11:38;;;;;;;20.88;7.38;;;;;;;16.58;100.00;100315.16;5045818;28;20469;-81
2023/07/24 02:14:03;;;;;;;26.30;7.72;;;;;;;16.58;100.00;100318.63;5045288;28;20032;-81
2023/07/24 02:16:29;;;;;;;22.00;7.88;;;;;;;16.60;100.00;100306.22;5041472;28;20025;-80
2023/07/24 02:18:54;;;;;;;14.95;7.00;;;;;;;16.61;100.00;100301.78;5044859;28;20025;-81
2023/07/24 02:21:19;;;;;;;18.23;7.75;;;;;;;16.61;100.00;100307.94;5037602;28;20091;-81
2023/07/24 02:23:44;;;;;;;21.08;7.40;;;;;;;16.62;100.00;100301.72;5044378;28;20108;-81
2023/07/24 02:26:10;;;;;;;24.25;7.82;;;;;;;16.61;100.00;100305.31;5044956;28;20392;-81
2023/07/24 02:28:35;;;;;;;23.88;8.77;;;;;;;16.65;100.00;100308.59;5041732;28;20037;-81
2023/07/24 02:31:00;;;;;;;32.72;9.20;;;;;;;16.67;100.00;100314.59;5036856;28;20025;-80
2023/07/24 02:33:26;;;;;;;21.65;9.52;;;;;;;16.67;100.00;100305.88;5032971;28;20073;-81
2023/07/24 02:35:52;;;;;;;28.98;10.40;;;;;;;16.65;100.00;100310.38;5043120;28;20464;-81
2023/07/24 02:38:18;;;;;;;25.30;10.32;;;;;;;16.63;100.00;100321.81;5038916;28;20021;-81
2023/07/24 02:40:44;;;;;;;36.00;11.30;;;;;;;16.61;100.00;100318.47;5042746;28;20034;-80
2023/07/24 02:43:09;;;;;;;31.63;10.68;;;;;;;16.65;100.00;100324.38;5042207;28;20037;-79
2023/07/24 02:45:35;;;;;;;43.80;12.07;;;;;;;16.65;100.00;100320.91;5041359;28;20389;-78
2023/07/24 02:48:01;;;;;;;54.08;11.82;;;;;;;16.59;100.00;100307.16;5036114;28;20120;-79
2023/07/24 02:50:27;;;;;;;29.02;10.40;;;;;;;16.56;100.00;100312.59;5039483;28;20028;-80
2023/07/24 02:52:52;;;;;;;50.45;12.13;;;;;;;16.57;100.00;100298.50;5038693;28;20021;-80
2023/07/24 02:55:18;;;;;;;28.00;10.20;;;;;;;16.54;100.00;100293.41;5047620;28;20117;-80
2023/07/24 02:57:43;;;;;;;23.63;9.25;;;;;;;16.53;100.00;100290.88;5032978;28;20036;-80
2023/07/24 03:00:09;;;;;;;22.67;8.45;;;;;;;16.51;100.00;100290.09;5043103;28;20037;-80
2023/07/24 03:02:34;;;;;;;30.23;9.60;;;;;;;16.50;100.00;100304.19;5039952;28;20079;-79
2023/07/24 03:05:00;;;;;;;18.42;8.40;;;;;;;16.48;100.00;100296.41;5048765;28;20528;-79
2023/07/24 03:07:25;;;;;;;24.15;8.93;;;;;;;16.48;100.00;100304.31;5039943;28;20037;-79
2023/07/24 03:09:50;;;;;;;20.02;7.95;;;;;;;16.44;100.00;100294.00;5038788;28;20239;-80
2023/07/24 03:12:16;;;;;;;16.75;7.82;;;;;;;16.37;100.00;100294.34;5045705;28;20079;-79
2023/07/24 03:14:41;;;;;;;18.00;6.93;;;;;;;16.32;100.00;100288.53;5045317;28;20025;-80
2023/07/24 03:17:06;;;;;;;13.98;6.40;;;;;;;16.22;100.00;100282.09;5048056;28;20056;-80
2023/07/24 03:19:31;;;;;;;19.90;6.40;;;;;;;16.14;100.00;100300.06;5040827;28;20451;-80
2023/07/24 03:21:57;;;;;;;11.40;5.82;;;;;;;15.96;100.00;100306.31;5035125;28;20026;-80
2023/07/24 03:24:22;;;;;;;11.55;5.72;;;;;;;15.95;100.00;100305.47;5042637;28;20056;-80
2023/07/24 03:26:48;;;;;;;14.20;5.72;;;;;;;15.83;100.00;100295.63;5035264;28;20063;-80
2023/07/24 03:29:13;;;;;;;17.25;5.90;;;;;;;15.86;100.00;100290.22;5039208;28;20037;-80
2023/07/24 03:31:38;;;;;;;11.32;5.40;;;;;;;15.87;100.00;100284.88;5035566;28;20052;-82
2023/07/24 03:34:04;;;;;;;16.15;5.82;;;;;;;15.91;100.00;100288.16;5039020;28;20045;-81
2023/07/24 03:36:29;;;;;;;17.30;6.53;;;;;;;15.81;100.00;100272.03;5033134;28;20120;-82
2023/07/24 03:38:54;;;;;;;41.95;8.32;;;;;;;15.87;100.00;100284.88;5044017;28;20037;-82
2023/07/24 03:41:20;;;;;;;16.42;6.35;;;;;;;15.84;100.00;100286.81;5041762;28;20104;-82
2023/07/24 03:43:45;;;;;;;13.07;5.85;;;;;;;15.85;100.00;100277.97;5041516;28;20021;-82
2023/07/24 03:46:10;;;;;;;23.55;6.75;;;;;;;15.85;100.00;100281.47;5043960;28;20059;-82
2023/07/24 03:48:36;;;;;;;15.82;6.70;;;;;;;15.79;100.00;100280.94;5040972;28;20431;-82
2023/07/24 03:51:02;;;;;;;20.77;6.13;;;;;;;15.79;100.00;100287.03;5043145;28;20488;-82
2023/07/24 03:53:28;;;;;;;13.93;6.63;;;;;;;15.83;100.00;100277.25;5043358;28;20049;-82
2023/07/24 03:55:54;;;;;;;45.67;8.27;;;;;;;15.91;100.00;100270.63;5042077;28;20429;-82
2023/07/24 03:58:20;;;;;;;19.08;7.05;;;;;;;15.88;100.00;100275.19;5043910;28;20021;-82
2023/07/24 04:00:45;;;;;;;23.10;6.72;;;;;;;15.87;100.00;100284.03;5042896;28;20082;-82
2023/07/24 04:03:11;;;;;;;23.38;6.78;;;;;;;15.86;100.00;100282.34;5042940;28;20065;-82
2023/07/24 04:05:36;;;;;;;26.23;7.43;;;;;;;15.93;100.00;100283.69;5045590;28;20025;-81
2023/07/24 04:08:02;;;;;;;23.35;7.32;;;;;;;15.89;100.00;100296.16;5040288;28;20037;-82
2023/07/24 04:10:28;;;;;;;27.73;7.75;;;;;;;15.88;100.00;100293.59;5051252;28;20366;-81
2023/07/24 04:12:53;;;;;;;27.00;7.50;;;;;;;15.87;100.00;100302.41;5036537;28;20110;-81
2023/07/24 04:15:19;;;;;;;19.73;6.65;;;;;;;15.91;100.00;100307.41;5047724;28;20029;-82
2023/07/24 04:17:44;;;;;;;17.17;6.90;;;;;;;15.92;100.00;100316.16;5043326;28;20033;-80
2023/07/24 04:20:10;;;;;;;21.20;6.95;;;;;;;15.94;100.00;100309.03;5039344;28;20040;-79
2023/07/24 04:22:35;;;;;;;17.17;6.78;;;;;;;15.88;100.00;100304.94;5038906;28;20029;-79
2023/07/24 04:25:00;;;;;;;22.77;6.88;;;;;;;15.89;100.00;100295.28;5040402;28;20018;-79
2023/07/24 04:27:26;;;;;;;18.92;6.60;;;;;;;15.87;100.00;100295.38;5044992;28;20033;-79
2023/07/24 04:29:51;;;;;;;22.67;8.00;;;;;;;15.91;100.00;100290.81;5041096;28;20033;-79
2023/07/24 04:32:16;;;;;;;36.78;8.43;;;;;;;15.86;100.00;100306.00;5042851;28;20040;-80
2023/07/24 04:34:42;;;;;;;13.35;7.07;;;;;;;15.86;100.00;100311.25;5033848;28;20508;-80
2023/07/24 04:37:07;;;;;;;24.85;7.78;;;;;;;15.85;100.00;100320.03;5041680;28;20111;-80
2023/07/24 04:39:33;;;;;;;26.10;7.30;;;;;;;15.87;100.00;100310.31;5045916;28;20167;-80
2023/07/24 04:41:59;;;;;;;21.25;7.05;;;;;;;15.82;100.00;100309.69;5043752;28;20151;-80
2023/07/24 04:44:24;;;;;;;19.67;7.38;;;;;;;15.82;100.00;100309.69;5040848;28;20461;-81
2023/07/24 04:46:50;;;;;;;20.98;7.55;;;;;;;15.85;100.00;100317.41;5048158;28;20118;-81
2023/07/24 04:49:16;;;;;;;13.77;6.90;;;;;;;15.76;100.00;100305.63;5046713;28;20032;-79
2023/07/24 04:51:41;;;;;;;13.23;6.80;;;;;;;15.62;100.00;100300.22;5037047;28;20037;-79
2023/07/24 04:54:07;;;;;;;17.85;7.53;;;;;;;15.67;100.00;100306.13;5043999;28;20112;-81
2023/07/24 04:56:32;;;;;;;21.38;7.97;;;;;;;15.70;100.00;100307.75;5044245;28;20027;-81
2023/07/24 04:58:57;;;;;;;16.95;7.43;;;;;;;15.70;100.00;100299.84;5043935;28;20543;-81
2023/07/24 05:01:23;;;;;;;14.80;7.25;;;;;;;15.71;100.00;100304.16;5043626;28;20056;-81
2023/07/24 05:03:48;;;;;;;18.30;7.82;;;;;;;15.66;100.00;100294.75;5040031;28;20025;-81
2023/07/24 05:06:13;;;;;;;22.25;7.65;;;;;;;15.71;100.00;100302.38;5042918;28;20037;-81
2023/07/24 05:08:38;;;;;;;17.10;7.60;;;;;;;15.78;100.00;100305.53;5038332;28;20109;-81
2023/07/24 05:11:04;;;;;;;13.65;7.03;;;;;;;15.78;100.00;100310.78;5043487;28;20488;-81
2023/07/24 05:13:29;;;;;;;15.82;7.60;;;;;;;15.74;100.00;100298.75;5046064;28;20477;-81
2023/07/24 05:15:54;;;;;;;18.90;7.30;;;;;;;15.74;100.00;100311.88;5040754;28;20041;-81
2023/07/24 05:18:20;;;;;;;22.00;8.07;;;;;;;15.77;100.00;100306.47;5044289;28;20033;-81
2023/07/24 05:20:48;;;;;;;15.25;7.45;;;;;;;15.75;100.00;100314.44;5034390;28;21023;-81
2023/07/24 05:23:14;;;;;;;18.17;7.97;;;;;;;15.69;100.00;100322.63;5042925;28;20025;-80
2023/07/24 05:25:40;;;;;;;17.35;7.75;;;;;;;15.65;100.00;100318.44;5045506;28;20548;-80
2023/07/24 05:28:05;;;;;;;17.95;7.88;;;;;;;15.64;100.00;100322.84;5040877;28;20113;-81
2023/07/24 05:30:30;;;;;;;14.10;8.10;;;;;;;15.74;100.00;100319.78;5037425;28;20072;-80
2023/07/24 05:32:56;;;;;;;14.23;8.43;;;;;;;15.74;100.00;100314.53;5036146;28;20129;-81
2023/07/24 05:35:21;;;;;;;22.23;9.82;;;;;;;15.82;100.00;100323.66;5034126;28;20034;-81
2023/07/24 05:37:46;;;;;;;31.88;11.23;;;;;;;15.87;100.00;100329.53;5044019;28;20041;-80
2023/07/24 05:40:12;;;;;;;24.85;11.40;;;;;;;15.92;100.00;100321.41;5042694;28;20028;-81
2023/07/24 05:42:41;;;;;;;18.67;10.25;;;;;;;15.89;100.00;100326.81;5047877;28;20036;-80
2023/07/24 05:45:07;;;;;;;22.88;9.65;;;;;;;15.94;100.00;100329.22;5042737;28;20033;-79
2023/07/24 05:47:33;;;;;;;30.15;9.98;;;;;;;15.95;100.00;100326.50;5033986;28;20025;-80
2023/07/24 05:49:58;;;;;;;17.67;9.60;;;;;;;15.98;100.00;100331.59;5043313;28;20094;-80
2023/07/24 05:52:24;;;;;;;22.77;10.30;;;;;;;16.02;100.00;100346.28;5043545;28;20083;-81
2023/07/24 05:54:49;;;;;;;18.48;9.65;;;;;;;15.98;100.00;100346.53;5047839;28;20025;-80
2023/07/24 05:57:14;;;;;;;25.58;10.25;;;;;;;16.02;100.00;100350.69;5042657;28;20036;-80
2023/07/24 05:59:40;;;;;;;24.95;10.65;;;;;;;16.05;100.00;100343.47;5044239;28;20021;-80
2023/07/24 06:02:05;;;;;;;22.23;10.90;;;;;;;16.09;100.00;100338.91;5040326;28;20088;-80
2023/07/24 06:04:31;;;;;;;24.60;10.95;;;;;;;16.16;100.00;100337.66;5044276;28;20385;-80
2023/07/24 06:06:56;;;;;;;23.17;11.07;;;;;;;16.16;100.00;100335.03;5036752;28;20025;-80
2023/07/24 06:09:21;;;;;;;19.50;10.80;;;;;;;16.21;100.00;100337.38;5047216;28;20025;-80
2023/07/24 06:11:47;;;;;;;20.48;10.90;;;;;;;16.19;100.00;100349.78;5045135;28;20520;-80
2023/07/24 06:14:12;;;;;;;21.73;11.30;;;;;;;16.24;100.00;100345.09;5037892;28;20892;-80
2023/07/24 06:16:37;;;;;;;23.27;11.15;;;;;;;16.32;100.00;100351.66;5033664;28;20133;-80
2023/07/24 06:19:03;;;;;;;25.73;11.15;;;;;;;16.37;100.00;100351.38;5044464;28;20025;-80
2023/07/24 06:21:28;;;;;;;27.45;11.23;;;;;;;16.48;100.00;100345.53;5036248;28;20029;-80
2023/07/24 06:23:54;;;;;;;20.25;10.07;;;;;;;16.54;100.00;100335.50;5045206;28;20464;-80
2023/07/24 06:26:19;;;;;;;16.95;9.02;;;;;;;16.60;100.00;100335.16;5036338;28;20029;-80
2023/07/24 06:28:44;;;;;;;19.55;9.55;;;;;;;16.73;100.00;100342.38;5044281;28;20072;-79
2023/07/24 06:31:09;;;;;;;18.45;9.20;;;;;;;16.83;100.00;100351.47;5044199;28;20029;-79
2023/07/24 06:33:35;;;;;;;14.65;8.70;;;;;;;16.82;100.00;100350.63;5036781;28;20128;-79
2023/07/24 06:36:00;;;;;;;16.85;8.73;;;;;;;16.89;100.00;100351.13;5031955;28;20033;-79
2023/07/24 06:38:26;;;;;;;15.13;8.85;;;;;;;16.81;100.00;100351.56;5039716;28;20029;-80
2023/07/24 06:40:51;;;;;;;14.05;8.10;;;;;;;16.72;100.00;100353.84;5044801;28;20036;-79
2023/07/24 06:43:17;;;;;;;14.77;8.00;;;;;;;16.61;100.00;100351.78;5041226;28;20032;-81
2023/07/24 06:45:42;;;;;;;15.55;8.20;;;;;;;16.56;100.00;100351.22;5036759;28;20503;-82
2023/07/24 06:48:07;;;;;;;16.73;7.75;;;;;;;16.45;100.00;100343.94;5037948;28;20036;-83
2023/07/24 06:50:33;;;;;;;13.25;7.38;;;;;;;16.48;100.00;100349.03;5042240;28;20106;-83
2023/07/24 06:52:58;;;;;;;18.65;8.55;;;;;;;16.48;100.00;100348.16;5040698;28;20018;-84
2023/07/24 06:55:23;;;;;;;16.98;7.13;;;;;;;16.45;100.00;100346.56;5047011;28;20033;-85
2023/07/24 06:57:49;;;;;;;14.25;8.13;;;;;;;16.57;100.00;100342.38;5040047;28;20104;-85
2023/07/24 07:00:14;;;;;;;15.95;7.60;;;;;;;16.58;100.00;100350.22;5043884;28;20362;-86
2023/07/24 07:02:39;;;;;;;15.32;7.35;;;;;;;16.60;100.00;100350.94;5040262;28;20025;-85
2023/07/24 07:05:05;;;;;;;14.52;7.45;;;;;;;16.56;100.00;100341.53;5048759;28;20134;-87
2023/07/24 07:07:31;;;;;;;14.77;8.00;;;;;;;16.54;100.00;100347.81;5032275;28;20031;-87
2023/07/24 07:09:56;;;;;;;12.73;6.97;;;;;;;16.56;100.00;100349.44;5039939;28;20037;-87
2023/07/24 07:12:21;;;;;;;16.63;6.75;;;;;;;16.43;100.00;100343.16;5039101;28;20385;-86
2023/07/24 07:14:47;;;;;;;10.77;6.00;;;;;;;16.42;100.00;100345.88;5029398;28;21792;-86
2023/07/24 07:17:12;;;;;;;11.35;6.60;;;;;;;16.46;100.00;100340.34;5035827;28;20033;-86
2023/07/24 07:19:37;;;;;;;10.27;5.75;;;;;;;16.42;100.00;100351.16;5039863;28;20103;-87
2023/07/24 07:22:03;;;;;;;10.93;6.00;;;;;;;16.41;100.00;100345.00;5044393;28;20279;-83
2023/07/24 07:24:28;;;;;;;12.13;5.88;;;;;;;16.47;100.00;100336.78;5033452;28;20461;-86
2023/07/24 07:26:54;;;;;;;12.07;5.65;;;;;;;16.49;100.00;100337.56;5041619;28;20017;-85
2023/07/24 07:29:19;;;;;;;10.38;5.32;;;;;;;16.39;100.00;100344.28;5040842;28;20032;-87
2023/07/24 07:31:44;;;;;;;7.00;4.80;;;;;;;16.36;100.00;100339.19;5035164;28;20063;-86
2023/07/24 07:34:10;;;;;;;10.20;5.20;;;;;;;16.28;100.00;100344.00;5038782;28;20493;-86
2023/07/24 07:36:35;;;;;;;10.20;5.45;;;;;;;16.47;100.00;100338.56;5033424;28;20029;-86
2023/07/24 07:39:01;;;;;;;8.18;5.53;;;;;;;16.68;100.00;100344.44;5036184;28;20468;-86
2023/07/24 07:41:26;;;;;;;10.50;6.30;;;;;;;16.88;100.00;100332.78;5033063;28;20056;-83
2023/07/24 07:43:51;;;;;;;12.38;7.03;;;;;;;17.11;100.00;100342.00;5043655;28;20461;-84
2023/07/24 07:46:17;;;;;;;11.20;6.55;;;;;;;17.11;100.00;100337.56;5043571;28;20052;-82
2023/07/24 07:48:42;;;;;;;8.38;6.15;;;;;;;17.05;100.00;100333.50;5042734;28;20473;-82
2023/07/24 07:51:07;;;;;;;13.27;6.43;;;;;;;17.07;100.00;100336.91;5039980;28;20104;-82
2023/07/24 07:53:33;;;;;;;10.23;7.05;;;;;;;17.22;100.00;100327.22;5039734;28;20029;-82
2023/07/24 07:56:02;;;;;;;9.95;7.07;;;;;;;17.27;100.00;100337.50;5041768;28;20026;-82
2023/07/24 07:58:27;;;;;;;8.88;6.57;;;;;;;17.37;100.00;100335.19;5043503;28;20060;-81
2023/07/24 08:00:52;;;;;;;10.90;6.78;;;;;;;17.31;100.00;100341.66;5037608;28;20469;-81
2023/07/24 08:03:17;;;;;;;10.25;7.05;;;;;;;17.49;100.00;100344.97;5043237;28;20028;-76
2023/07/24 08:05:43;;;;;;;10.57;7.43;;;;;;;17.48;100.00;100340.63;5038924;28;20033;-75
2023/07/24 08:08:08;;;;;;;10.65;7.35;;;;;;;17.46;100.00;100343.38;5038133;28;20087;-74
2023/07/24 08:10:37;;;;;;;8.57;6.75;;;;;;;17.27;100.00;100338.34;5034384;28;20028;-74
2023/07/24 08:13:03;;;;;;;9.70;7.45;;;;;;;17.38;100.00;100334.22;5039948;28;20064;-74
2023/07/24 08:15:28;;;;;;;12.93;7.93;;;;;;;17.47;100.00;100331.06;5047041;28;20527;-74
2023/07/24 08:17:53;;;;;;;10.50;7.50;;;;;;;17.53;100.00;100328.06;5049158;28;20095;-74
2023/07/24 08:20:19;;;;;;;13.48;8.10;;;;;;;17.58;100.00;100333.88;5046273;28;20523;-74
2023/07/24 08:22:44;;;;;;;13.80;7.95;;;;;;;17.70;100.00;100337.56;5047803;28;20025;-74
2023/07/24 08:25:09;;;;;;;11.63;7.80;;;;;;;17.55;100.00;100327.00;5044335;28;20033;-74
2023/07/24 08:27:35;;;;;;;10.52;8.00;;;;;;;17.49;100.00;100327.38;5049801;28;20021;-78
2023/07/24 08:30:00;;;;;;;12.65;7.40;;;;;;;17.39;100.00;100336.75;5044845;28;20033;-74
2023/07/24 08:32:25;;;;;;;12.57;7.78;;;;;;;17.39;100.00;100335.91;5038426;28;20047;-74
2023/07/24 08:34:50;;;;;;;11.95;7.88;;;;;;;17.25;100.00;100328.84;5045792;28;20534;-77
2023/07/24 08:37:16;;;;;;;13.65;9.25;;;;;;;17.37;100.00;100340.44;5035049;28;20022;-78
2023/07/24 08:39:41;;;;;;;16.90;9.50;;;;;;;17.37;100.00;100336.03;5040994;28;20271;-78
2023/07/24 08:42:11;;;;;;;12.27;9.75;;;;;;;17.47;100.00;100334.53;5041647;28;20045;-78
2023/07/24 08:44:37;;;;;;;14.75;10.50;;;;;;;17.40;100.00;100335.00;5038964;28;20083;-78
2023/07/24 08:47:03;;;;;;;11.70;9.43;;;;;;;17.35;100.00;100329.16;5046593;28;20028;-78
2023/07/24 08:49:30;;;;;;;16.17;10.43;;;;;;;17.50;100.00;100341.41;5040546;28;20032;-78
2023/07/24 08:51:56;;;;;;;15.32;10.43;;;;;;;17.65;100.00;100335.19;5040645;28;20053;-78
2023/07/24 08:54:24;;;;;;;16.00;11.32;;;;;;;17.65;100.00;100329.06;5036803;28;20021;-79
2023/07/24 08:56:51;;;;;;;11.82;10.50;;;;;;;17.72;100.00;100330.38;5042820;28;20109;-79
2023/07/24 08:59:17;;;;;;;16.88;11.05;;;;;;;17.90;100.00;100326.66;5041496;28;20392;-81
2023/07/24 09:01:43;;;;;;;15.43;10.57;;;;;;;18.01;100.00;100323.34;5037272;28;20045;-80
2023/07/24 09:04:08;;;;;;;13.65;10.13;;;;;;;18.04;100.00;100304.69;5036892;28;20037;-79
2023/07/24 09:06:34;;;;;;;12.43;10.15;;;;;;;18.01;100.00;100318.91;5042937;28;20017;-79
2023/07/24 09:09:00;;;;;;;12.90;8.75;;;;;;;17.88;100.00;100314.50;5046213;28;20031;-79
2023/07/24 09:11:25;;;;;;;12.52;8.95;;;;;;;17.95;100.00;100292.94;5039822;28;20040;-78
2023/07/24 09:13:50;;;;;;;12.52;10.07;;;;;;;18.28;100.00;100291.75;5041548;28;20168;-78
2023/07/24 09:16:24;;;;;;;12.13;9.25;;;;;;;18.47;100.00;100286.97;5043319;28;20481;-78
2023/07/24 09:18:53;;;;;;;12.65;9.43;;;;;;;18.79;100.00;100288.47;5044657;28;20021;-78
2023/07/24 09:21:32;;;;;;;13.80;9.70;;;;;;;19.16;100.00;100278.91;5043193;28;20064;-78
2023/07/24 09:24:08;;;;;;;13.18;7.65;;;;;;;19.16;100.00;100281.53;5046216;28;20025;-78
2023/07/24 09:26:33;;;;;;;9.52;7.22;;;;;;;18.98;100.00;100272.25;5043672;28;20091;-78
2023/07/24 09:28:59;;;;;;;8.15;6.75;;;;;;;18.82;100.00;100281.19;5046226;28;20424;-78
2023/07/24 09:31:36;;;;;;;11.13;7.20;;;;;;;18.65;100.00;100277.00;5043310;28;20456;-78
2023/07/24 09:34:02;;;;;;;9.48;7.20;;;;;;;18.42;100.00;100273.22;5045846;28;20499;-78
2023/07/24 09:36:38;;;;;;;9.05;6.90;;;;;;;18.28;100.00;100269.78;5044125;28;20029;-78
2023/07/24 09:39:06;;;;;;;9.40;6.40;;;;;;;18.09;100.00;100260.41;5045499;28;20063;-77
2023/07/24 09:41:31;;;;;;;7.50;6.07;;;;;;;18.07;100.00;100250.91;5044078;28;20025;-77
2023/07/24 09:43:59;;;;;;;7.55;6.53;;;;;;;18.22;100.00;100255.22;5046210;28;20017;-77
2023/07/24 09:46:25;;;;;;;7.55;6.22;;;;;;;18.31;100.00;100253.75;5045338;28;20060;-77
2023/07/24 09:48:51;;;;;;;6.95;5.63;;;;;;;18.22;100.00;100245.50;5045760;28;20033;-78
2023/07/24 09:51:16;;;;;;;7.28;5.72;;;;;;;18.28;100.00;100244.25;5046102;28;20473;-77
2023/07/24 09:54:04;;;;;;;8.93;5.72;;;;;;;18.11;100.00;100240.03;5044551;28;20025;-77
2023/07/24 09:56:31;;;;;;;8.95;5.80;;;;;;;17.94;100.00;100235.00;5045470;28;20061;-77
2023/07/24 09:58:58;;;;;;;7.18;6.00;;;;;;;17.92;100.00;100232.50;5044214;28;20040;-77
2023/07/24 10:01:25;;;;;;;6.35;5.55;;;;;;;17.72;100.00;100235.47;5044343;28;20068;-77
2023/07/24 10:03:50;;;;;;;7.70;5.60;;;;;;;17.62;100.00;100240.47;5045946;28;20055;-77
2023/07/24 10:06:16;;;;;;;8.25;6.13;;;;;;;17.60;100.00;100239.75;5043037;28;20060;-77
2023/07/24 10:08:42;;;;;;;7.03;6.10;;;;;;;17.60;100.00;100257.38;5038317;28;20029;-77
2023/07/24 10:11:10;;;;;;;8.10;6.32;;;;;;;17.62;100.00;100255.44;5042070;28;20028;-77
2023/07/24 10:13:36;;;;;;;8.40;6.28;;;;;;;17.53;100.00;100267.44;5044943;28;20024;-77
2023/07/24 10:16:06;;;;;;;7.32;6.07;;;;;;;17.47;100.00;100273.06;5042817;28;20025;-77
2023/07/24 10:18:31;;;;;;;7.43;5.60;;;;;;;17.37;100.00;100256.13;5045473;28;20024;-77
2023/07/24 10:21:07;;;;;;;7.40;6.47;;;;;;;17.28;100.00;100249.63;5044162;28;20082;-77
2023/07/24 10:23:43;;;;;;;8.38;6.18;;;;;;;17.37;100.00;100269.31;5029925;28;20171;-76
2023/07/24 10:26:09;;;;;;;9.13;6.93;;;;;;;17.37;100.00;100278.06;5032471;28;20021;-77
2023/07/24 10:28:40;;;;;;;11.07;6.57;;;;;;;17.34;100.00;100272.97;5048403;28;20044;-77
2023/07/24 10:31:22;;;;;;;6.25;5.50;;;;;;;17.30;100.00;100266.19;5038847;28;20105;-76
2023/07/24 10:33:49;;;;;;;6.47;5.57;;;;;;;17.22;100.00;100277.19;5030494;28;20041;-76
2023/07/24 10:36:19;;;;;;;6.63;5.65;;;;;;;17.25;100.00;100274.38;5040488;28;20021;-77
2023/07/24 10:38:45;;;;;;;8.45;6.40;;;;;;;17.38;100.00;100274.47;5043458;28;20024;-76
2023/07/24 10:41:11;;;;;;;6.57;5.88;;;;;;;17.50;100.00;100273.72;5039155;28;20041;-77
2023/07/24 10:43:44;;;;;;;7.90;5.68;;;;;;;17.66;100.00;100278.91;5037675;28;20032;-77
2023/07/24 10:46:10;;;;;;;;;;;;;;;18.05;100.00;100289.72;5030029;28;20370;-76
2023/07/24 10:48:36;;;;;;;7.13;6.03;;;;;;;18.32;100.00;100302.94;5034041;28;20059;-77
2023/07/24 10:51:09;;;;;;;7.35;5.90;;;;;;;18.51;100.00;100286.75;5039737;28;20040;-77
2023/07/24 10:53:37;;;;;;;7.00;5.57;;;;;;;18.48;100.00;100291.31;5042571;28;20373;-76
2023/07/24 10:56:05;;;;;;;6.95;6.25;;;;;;;18.59;100.00;100279.19;5041554;28;20472;-76
2023/07/24 10:58:31;;;;;;;6.57;5.97;;;;;;;18.62;100.00;100276.34;5041768;28;20079;-77
2023/07/24 11:00:57;;;;;;;7.70;6.22;;;;;;;18.64;100.00;100277.94;5039840;28;20021;-77
2023/07/24 11:03:24;;;;;;;6.88;6.13;;;;;;;18.74;100.00;100286.16;5042897;28;20032;-76
2023/07/24 11:05:49;;;;;;;7.05;6.35;;;;;;;18.90;100.00;100288.59;5041927;28;20087;-77